Time;durP1;ratioP1;P1;durP2;ratioP2;P2;SDS_P1;SDS_P2;PMS_P1;PMS_P2;Temp;Humidity;BMP_temperature;BMP_pressure;BME280_temperature;BME280_humidity;BME280_pressure;Samples;Min_cycle;Max_cycle;Signal;HPM_P1;HPM_P2
2023/04/20 00:01:43;;;;;;;0.50;0.50;;;6.00;99.90;;;;;;4995777;28;20907;-70
2023/04/20 00:04:09;;;;;;;1.27;1.08;;;6.10;99.90;;;;;;4995520;28;20200;-70
2023/04/20 00:06:34;;;;;;;1.10;1.00;;;6.00;99.90;;;;;;4996895;28;20685;-70
2023/04/20 00:09:00;;;;;;;1.07;1.07;;;5.80;99.90;;;;;;4996510;28;20165;-70
2023/04/20 00:11:26;;;;;;;3.50;1.47;;;5.90;99.90;;;;;;4997192;28;20168;-70
2023/04/20 00:13:52;;;;;;;2.13;1.00;;;5.80;99.90;;;;;;4996671;28;20430;-70
2023/04/20 00:16:18;;;;;;;0.63;0.60;;;5.90;99.90;;;;;;4996919;28;20185;-70
2023/04/20 00:18:45;;;;;;;0.60;0.60;;;6.10;99.90;;;;;;4996546;28;20176;-70
2023/04/20 00:21:12;;;;;;;3.20;2.45;;;6.10;99.90;;;;;;4995175;28;20187;-70
2023/04/20 00:23:37;;;;;;;4.22;1.50;;;5.80;99.90;;;;;;4996433;28;20199;-70
2023/04/20 00:26:03;;;;;;;1.07;0.97;;;5.80;99.90;;;;;;4995897;28;20279;-70
2023/04/20 00:28:29;;;;;;;3.03;1.07;;;5.80;99.90;;;;;;4996277;28;20168;-70
2023/04/20 00:30:54;;;;;;;1.63;1.53;;;6.00;99.90;;;;;;4996550;28;20197;-70
2023/04/20 00:33:20;;;;;;;1.10;1.00;;;6.00;99.90;;;;;;4995687;28;20196;-69
2023/04/20 00:35:46;;;;;;;1.40;1.40;;;6.00;99.90;;;;;;4995181;28;20513;-70
2023/04/20 00:38:11;;;;;;;1.40;1.30;;;6.20;99.90;;;;;;4996196;28;20178;-70
2023/04/20 00:40:37;;;;;;;0.83;0.83;;;6.30;99.90;;;;;;4995955;28;20557;-70
2023/04/20 00:43:12;;;;;;;1.17;1.07;;;6.20;99.90;;;;;;4995311;28;20196;-69
2023/04/20 00:45:38;;;;;;;1.15;0.70;;;5.90;99.90;;;;;;4995846;28;20199;-70
2023/04/20 00:48:05;;;;;;;1.97;1.87;;;5.70;99.90;;;;;;4996083;28;20173;-69
2023/04/20 00:50:32;;;;;;;1.20;1.10;;;5.80;99.90;;;;;;4994989;28;20208;-70
2023/04/20 00:52:58;;;;;;;1.70;1.60;;;5.90;99.90;;;;;;4995850;28;20208;-70
2023/04/20 00:55:23;;;;;;;1.90;0.70;;;6.00;99.90;;;;;;4995941;28;20598;-70
2023/04/20 00:57:50;;;;;;;2.10;1.83;;;5.90;99.90;;;;;;4996009;28;20800;-70
2023/04/20 01:00:16;;;;;;;0.40;0.40;;;5.90;99.90;;;;;;4995954;28;20172;-70
2023/04/20 01:02:42;;;;;;;0.40;0.40;;;5.70;99.90;;;;;;4995672;28;20567;-70
2023/04/20 01:05:08;;;;;;;0.40;0.40;;;5.50;99.90;;;;;;4996055;28;20881;-70
2023/04/20 01:07:33;;;;;;;2.85;1.50;;;5.40;99.90;;;;;;4995692;28;20164;-70
2023/04/20 01:09:59;;;;;;;0.50;0.50;;;5.50;99.90;;;;;;4995896;28;20207;-70
2023/04/20 01:12:25;;;;;;;0.40;0.40;;;5.50;99.90;;;;;;4995809;28;20642;-70
2023/04/20 01:14:50;;;;;;;0.40;0.40;;;5.60;99.90;;;;;;4995831;28;20168;-70
2023/04/20 01:17:16;;;;;;;0.47;0.47;;;5.70;99.90;;;;;;4995458;28;20703;-70
2023/04/20 01:19:43;;;;;;;0.80;0.80;;;5.80;99.90;;;;;;4995675;28;20172;-70
2023/04/20 01:22:16;;;;;;;1.20;1.15;;;5.80;99.90;;;;;;4995538;28;20175;-70
2023/04/20 01:24:41;;;;;;;1.25;1.13;;;5.90;99.90;;;;;;4995705;28;20177;-70
2023/04/20 01:27:07;;;;;;;0.93;0.93;;;6.00;99.90;;;;;;4995348;28;20200;-70
2023/04/20 01:29:34;;;;;;;1.00;1.00;;;6.00;99.90;;;;;;4995358;28;20196;-70
2023/04/20 01:32:00;;;;;;;1.05;1.05;;;5.90;99.90;;;;;;4995141;28;20169;-70
2023/04/20 01:34:25;;;;;;;1.00;1.00;;;6.00;99.90;;;;;;4993675;28;20262;-70
2023/04/20 01:36:51;;;;;;;0.70;0.70;;;6.00;99.90;;;;;;4994243;28;20492;-70
2023/04/20 01:39:17;;;;;;;2.70;1.43;;;6.00;99.90;;;;;;4994442;28;20637;-70
2023/04/20 01:41:43;;;;;;;1.57;0.97;;;5.90;99.90;;;;;;4994448;28;20230;-70
2023/04/20 01:44:08;;;;;;;0.70;0.70;;;5.90;99.90;;;;;;4993267;28;20436;-69
2023/04/20 01:46:38;;;;;;;1.17;1.17;;;6.00;99.90;;;;;;4994202;28;20466;-70
2023/04/20 01:49:04;;;;;;;0.60;0.60;;;5.90;99.90;;;;;;4994622;28;20165;-70
2023/04/20 01:51:32;;;;;;;4.35;2.60;;;5.90;99.90;;;;;;4994914;28;20243;-70
2023/04/20 01:53:58;;;;;;;1.90;1.60;;;6.00;99.90;;;;;;4995050;28;20188;-70
2023/04/20 01:56:24;;;;;;;0.60;0.60;;;6.00;99.90;;;;;;4994890;28;20222;-70
2023/04/20 01:58:50;;;;;;;0.87;0.87;;;6.00;99.90;;;;;;4994722;28;20169;-70
2023/04/20 02:01:16;;;;;;;2.07;1.63;;;6.10;99.90;;;;;;4994870;28;20474;-70
2023/04/20 02:03:41;;;;;;;0.70;0.70;;;6.10;99.90;;;;;;4994646;28;20561;-70
2023/04/20 02:06:07;;;;;;;1.07;1.07;;;6.10;99.60;;;;;;4994501;28;20965;-70
2023/04/20 02:08:33;;;;;;;1.47;1.37;;;6.10;99.60;;;;;;4994568;28;20713;-70
2023/04/20 02:10:59;;;;;;;2.60;1.07;;;6.00;99.90;;;;;;4993385;28;20478;-70
2023/04/20 02:13:25;;;;;;;1.97;1.80;;;6.10;99.60;;;;;;4994507;28;20431;-70
2023/04/20 02:15:50;;;;;;;1.27;1.25;;;6.10;99.10;;;;;;4994591;28;20199;-69
2023/04/20 02:18:16;;;;;;;3.83;1.70;;;6.20;99.00;;;;;;4994338;28;20185;-69
2023/04/20 02:20:43;;;;;;;1.45;1.35;;;6.10;98.70;;;;;;4994412;28;20176;-70
2023/04/20 02:23:09;;;;;;;0.68;0.68;;;6.10;99.10;;;;;;4994347;28;20191;-69
2023/04/20 02:25:35;;;;;;;0.47;0.47;;;6.10;99.60;;;;;;4994260;28;20687;-69
2023/04/20 02:28:00;;;;;;;0.77;0.77;;;6.10;99.50;;;;;;4994375;28;20505;-70
2023/04/20 02:30:26;;;;;;;1.03;1.03;;;6.10;99.90;;;;;;4994286;28;20409;-70
2023/04/20 02:32:52;;;;;;;1.73;1.07;;;6.10;99.90;;;;;;4994233;28;20235;-70
2023/04/20 02:35:18;;;;;;;1.13;1.13;;;6.00;99.90;;;;;;4994187;28;20168;-70
2023/04/20 02:37:44;;;;;;;0.70;0.70;;;6.00;99.90;;;;;;4994360;28;20764;-70
2023/04/20 02:40:10;;;;;;;0.55;0.45;;;6.20;99.90;;;;;;4994288;28;20191;-70
2023/04/20 02:42:36;;;;;;;2.88;2.63;;;6.10;99.90;;;;;;4994075;28;20199;-70
2023/04/20 02:45:01;;;;;;;1.00;1.00;;;6.00;99.90;;;;;;4994122;28;20184;-70
2023/04/20 02:47:27;;;;;;;0.40;0.40;;;5.90;99.90;;;;;;4993927;28;20181;-70
2023/04/20 02:49:53;;;;;;;0.50;0.50;;;5.80;99.90;;;;;;4993900;28;20172;-70
2023/04/20 02:52:18;;;;;;;0.60;0.60;;;5.60;99.90;;;;;;4993887;28;20196;-69
2023/04/20 02:54:44;;;;;;;2.23;0.60;;;5.70;99.80;;;;;;4992678;28;20184;-70
2023/04/20 02:57:10;;;;;;;0.60;0.60;;;5.60;99.40;;;;;;4993505;28;20255;-70
2023/04/20 02:59:36;;;;;;;1.25;1.15;;;5.50;99.20;;;;;;4993986;28;20176;-70
2023/04/20 03:02:02;;;;;;;2.45;0.80;;;5.50;99.70;;;;;;4994082;28;20204;-70
2023/04/20 03:04:29;;;;;;;1.58;0.70;;;5.60;99.80;;;;;;4993776;28;20251;-70
2023/04/20 03:06:55;;;;;;;0.50;0.50;;;5.70;99.50;;;;;;4993793;28;20200;-70
2023/04/20 03:09:22;;;;;;;1.33;1.10;;;5.90;99.20;;;;;;4993913;28;20537;-70
2023/04/20 03:11:48;;;;;;;1.13;1.13;;;5.90;99.50;;;;;;4993853;28;20174;-70
2023/04/20 03:14:14;;;;;;;1.95;1.85;;;5.80;99.90;;;;;;4993632;28;20271;-70
2023/04/20 03:16:40;;;;;;;0.80;0.80;;;5.90;99.90;;;;;;4993941;28;20304;-69
2023/04/20 03:19:06;;;;;;;1.77;0.68;;;5.90;99.90;;;;;;4989135;28;20562;-69
2023/04/20 03:21:32;;;;;;;1.23;1.00;;;6.00;99.90;;;;;;4993714;28;20705;-70
2023/04/20 03:23:58;;;;;;;0.93;0.93;;;6.00;99.60;;;;;;4991981;28;20200;-70
2023/04/20 03:26:24;;;;;;;1.00;1.00;;;6.00;99.40;;;;;;4992331;28;20203;-70
2023/04/20 03:28:50;;;;;;;2.90;1.37;;;6.00;99.70;;;;;;4992116;28;20184;-70
2023/04/20 03:31:16;;;;;;;0.53;0.53;;;5.90;99.60;;;;;;4993549;28;20232;-70
2023/04/20 03:33:41;;;;;;;0.60;0.60;;;5.90;99.90;;;;;;4993543;28;20435;-70
2023/04/20 03:36:08;;;;;;;2.23;2.13;;;5.90;99.90;;;;;;4993653;28;20181;-70
2023/04/20 03:38:34;;;;;;;1.85;1.75;;;5.90;99.90;;;;;;4993535;28;20263;-70
2023/04/20 03:41:00;;;;;;;2.20;2.10;;;5.90;99.90;;;;;;4993752;28;20235;-70
2023/04/20 03:43:25;;;;;;;2.75;2.55;;;5.80;99.80;;;;;;4993509;28;20712;-69
2023/04/20 03:45:51;;;;;;;0.70;0.70;;;5.90;99.90;;;;;;4993446;28;20311;-69
2023/04/20 03:48:17;;;;;;;1.67;1.30;;;5.90;99.90;;;;;;4993371;28;20503;-69
2023/04/20 03:50:43;;;;;;;3.03;1.00;;;5.90;99.90;;;;;;4993553;28;20168;-70
2023/04/20 03:53:09;;;;;;;1.00;1.00;;;6.00;99.90;;;;;;4993311;28;20215;-70
2023/04/20 03:55:35;;;;;;;1.57;1.50;;;6.10;99.70;;;;;;4993551;28;20179;-70
2023/04/20 03:58:00;;;;;;;3.60;2.47;;;5.90;98.70;;;;;;4993379;28;20407;-69
2023/04/20 04:00:26;;;;;;;1.77;1.70;;;5.90;98.90;;;;;;4993409;28;20953;-70
2023/04/20 04:02:51;;;;;;;2.97;1.13;;;5.90;99.20;;;;;;4993326;28;20275;-70
2023/04/20 04:05:17;;;;;;;1.47;0.60;;;5.90;99.20;;;;;;4993276;28;20194;-70
2023/04/20 04:07:43;;;;;;;0.70;0.70;;;5.90;99.10;;;;;;4994089;28;20171;-70
2023/04/20 04:10:09;;;;;;;2.10;1.23;;;5.90;99.10;;;;;;4997000;28;20179;-70
2023/04/20 04:12:35;;;;;;;2.53;2.30;;;5.80;98.70;;;;;;4996877;28;20195;-70
2023/04/20 04:15:01;;;;;;;1.17;1.17;;;5.90;99.20;;;;;;4996985;28;20606;-70
2023/04/20 04:17:26;;;;;;;1.40;1.30;;;5.80;99.10;;;;;;4995248;28;20176;-70
2023/04/20 04:19:52;;;;;;;4.10;1.10;;;5.80;99.80;;;;;;4996720;28;20183;-70
2023/04/20 04:22:18;;;;;;;2.77;1.03;;;5.80;99.90;;;;;;4996828;28;20555;-69
2023/04/20 04:24:43;;;;;;;1.43;0.70;;;5.90;99.90;;;;;;4996717;28;20172;-69
2023/04/20 04:27:10;;;;;;;1.70;1.60;;;6.00;99.90;;;;;;4996367;28;20200;-69
2023/04/20 04:29:37;;;;;;;0.40;0.40;;;6.00;99.90;;;;;;4996493;28;20252;-69
2023/04/20 04:32:04;;;;;;;0.73;0.73;;;6.10;99.90;;;;;;4996471;28;20636;-70
2023/04/20 04:34:30;;;;;;;1.30;1.30;;;6.10;99.90;;;;;;4996443;28;20651;-70
2023/04/20 04:36:56;;;;;;;0.98;0.98;;;6.00;99.70;;;;;;4995015;28;20644;-69
2023/04/20 04:39:22;;;;;;;1.30;1.20;;;6.10;99.60;;;;;;4996364;28;20657;-70
2023/04/20 04:41:48;;;;;;;0.67;0.60;;;6.00;99.90;;;;;;4996405;28;20181;-69
2023/04/20 04:44:14;;;;;;;0.77;0.77;;;5.90;99.20;;;;;;4996130;28;20196;-69
2023/04/20 04:46:40;;;;;;;2.38;2.25;;;5.80;98.70;;;;;;4996310;28;20625;-70
2023/04/20 04:49:06;;;;;;;1.55;1.45;;;5.70;99.30;;;;;;4995907;28;20176;-70
2023/04/20 04:51:32;;;;;;;0.80;0.80;;;5.70;99.90;;;;;;4996116;28;20175;-69
2023/04/20 04:53:58;;;;;;;1.70;1.60;;;5.90;99.90;;;;;;4996226;28;20197;-70
2023/04/20 04:56:23;;;;;;;1.40;1.40;;;6.00;99.90;;;;;;4994640;28;20188;-69
2023/04/20 04:58:49;;;;;;;3.00;0.80;;;6.00;99.90;;;;;;4995799;28;20187;-70
2023/04/20 05:01:15;;;;;;;9.83;2.20;;;6.00;99.90;;;;;;4996125;28;20172;-70
2023/04/20 05:03:40;;;;;;;3.60;3.40;;;6.00;99.90;;;;;;4996076;28;20200;-70
2023/04/20 05:06:06;;;;;;;1.53;1.13;;;5.90;99.90;;;;;;4995169;28;20199;-69
2023/04/20 05:08:33;;;;;;;2.67;2.58;;;6.00;99.90;;;;;;4995702;28;20169;-70
2023/04/20 05:10:59;;;;;;;1.00;1.00;;;6.10;99.90;;;;;;4995951;28;20249;-70
2023/04/20 05:13:24;;;;;;;0.53;0.47;;;6.00;99.20;;;;;;4995796;28;20664;-70
2023/04/20 05:15:50;;;;;;;0.67;0.67;;;5.90;99.50;;;;;;4995662;28;20185;-69
2023/04/20 05:18:15;;;;;;;0.80;0.80;;;5.80;99.80;;;;;;4995288;28;20172;-70
2023/04/20 05:20:41;;;;;;;8.37;2.23;;;5.90;99.90;;;;;;4995659;28;20181;-70
2023/04/20 05:23:07;;;;;;;1.10;1.00;;;6.00;99.90;;;;;;4995597;28;20198;-70
2023/04/20 05:25:33;;;;;;;1.90;1.00;;;6.00;99.90;;;;;;4995326;28;20450;-70
2023/04/20 05:27:59;;;;;;;7.33;1.00;;;6.10;99.90;;;;;;4993942;28;20933;-69
2023/04/20 05:30:25;;;;;;;1.00;1.00;;;6.20;99.90;;;;;;4995303;28;20440;-70
2023/04/20 05:32:51;;;;;;;0.77;0.77;;;6.20;99.90;;;;;;4995312;28;20248;-70
2023/04/20 05:35:16;;;;;;;1.13;1.13;;;6.30;99.90;;;;;;4995340;28;20491;-70
2023/04/20 05:37:42;;;;;;;1.13;1.03;;;6.20;99.90;;;;;;4995164;28;20540;-69
2023/04/20 05:40:08;;;;;;;1.27;1.27;;;6.20;99.90;;;;;;4994475;28;20179;-69
2023/04/20 05:42:36;;;;;;;5.53;1.92;;;6.10;99.90;;;;;;4994404;28;20191;-69
2023/04/20 05:45:04;;;;;;;1.70;1.60;;;6.00;99.90;;;;;;4992041;28;20480;-69
2023/04/20 05:47:30;;;;;;;0.50;0.50;;;6.10;99.90;;;;;;4992548;28;20639;-68
2023/04/20 05:49:55;;;;;;;0.77;0.77;;;6.30;99.90;;;;;;4993961;28;20180;-69
2023/04/20 05:52:21;;;;;;;1.10;1.03;;;6.30;99.90;;;;;;4994842;28;20284;-68
2023/04/20 05:54:48;;;;;;;3.20;2.97;;;6.40;99.90;;;;;;4994831;28;20255;-69
2023/04/20 05:57:14;;;;;;;7.53;1.17;;;6.40;99.40;;;;;;4995081;28;20223;-69
2023/04/20 05:59:40;;;;;;;0.60;0.60;;;6.40;98.80;;;;;;4995199;28;20564;-68
2023/04/20 06:02:06;;;;;;;3.03;2.83;;;6.30;98.30;;;;;;4994861;28;20403;-68
2023/04/20 06:04:32;;;;;;;0.70;0.70;;;6.30;98.20;;;;;;4994697;28;20236;-68
2023/04/20 06:06:59;;;;;;;5.57;1.60;;;6.20;98.50;;;;;;4994624;28;20209;-69
2023/04/20 06:09:24;;;;;;;1.23;1.23;;;6.20;98.70;;;;;;4994554;28;20174;-69
2023/04/20 06:11:50;;;;;;;3.20;1.13;;;6.30;98.60;;;;;;4994657;28;20169;-68
2023/04/20 06:14:16;;;;;;;0.80;0.70;;;6.40;98.60;;;;;;4993167;28;20194;-69
2023/04/20 06:16:41;;;;;;;4.43;2.80;;;6.40;98.80;;;;;;4994921;28;20178;-69
2023/04/20 06:19:07;;;;;;;5.23;2.47;;;6.50;98.90;;;;;;4994114;28;20180;-68
2023/04/20 06:21:34;;;;;;;4.33;1.63;;;6.60;98.70;;;;;;4994622;28;20555;-68
2023/04/20 06:23:59;;;;;;;1.30;1.20;;;6.60;98.60;;;;;;4994494;28;20553;-68
2023/04/20 06:26:25;;;;;;;5.87;3.03;;;6.60;98.50;;;;;;4994305;28;20351;-69
2023/04/20 06:28:52;;;;;;;1.20;1.03;;;6.60;98.00;;;;;;4994130;28;20184;-69
2023/04/20 06:31:18;;;;;;;2.35;1.75;;;6.60;97.70;;;;;;4993802;28;20256;-68
2023/04/20 06:33:44;;;;;;;1.15;1.05;;;6.70;98.00;;;;;;4994239;28;20197;-69
2023/04/20 06:36:09;;;;;;;2.60;1.33;;;6.70;98.10;;;;;;4994425;28;20166;-69
2023/04/20 06:38:35;;;;;;;0.40;0.40;;;6.70;98.30;;;;;;4993964;28;20480;-68
2023/04/20 06:41:01;;;;;;;0.90;0.90;;;6.70;98.40;;;;;;4994345;28;20240;-68
2023/04/20 06:43:28;;;;;;;0.70;0.70;;;6.70;99.10;;;;;;4994058;28;20205;-68
2023/04/20 06:45:54;;;;;;;0.95;0.85;;;6.60;98.50;;;;;;4994324;28;20195;-68
2023/04/20 06:48:19;;;;;;;1.77;1.67;;;6.60;98.80;;;;;;4993913;28;20589;-68
2023/04/20 06:50:49;;;;;;;2.53;1.90;;;6.60;98.70;;;;;;4994262;28;20181;-68
2023/04/20 06:53:16;;;;;;;0.77;0.77;;;6.40;97.30;;;;;;4993768;28;20205;-68
2023/04/20 06:55:42;;;;;;;4.85;3.20;;;6.50;97.30;;;;;;4993959;28;20271;-69
2023/04/20 06:58:07;;;;;;;1.10;1.10;;;6.40;97.80;;;;;;4993770;28;20177;-68
2023/04/20 07:00:33;;;;;;;1.90;0.63;;;6.50;98.20;;;;;;4994021;28;20189;-69
2023/04/20 07:02:59;;;;;;;0.40;0.40;;;6.70;98.60;;;;;;4994023;28;20194;-68
2023/04/20 07:05:27;;;;;;;1.10;1.10;;;6.70;98.20;;;;;;4993776;28;20205;-68
2023/04/20 07:07:53;;;;;;;1.40;1.30;;;6.80;97.80;;;;;;4993647;28;20669;-68
2023/04/20 07:10:19;;;;;;;1.70;1.37;;;6.80;98.00;;;;;;4993868;28;20212;-68
2023/04/20 07:12:45;;;;;;;1.15;1.05;;;6.70;98.30;;;;;;4993675;28;20931;-69
2023/04/20 07:15:11;;;;;;;0.40;0.40;;;6.80;97.90;;;;;;4993877;28;20179;-68
2023/04/20 07:17:37;;;;;;;0.98;0.90;;;6.60;97.00;;;;;;4993663;28;20171;-68
2023/04/20 07:20:09;;;;;;;0.77;0.77;;;6.50;97.00;;;;;;4993749;28;20184;-68
2023/04/20 07:22:35;;;;;;;0.50;0.50;;;6.50;97.00;;;;;;4993730;28;20287;-68
2023/04/20 07:25:06;;;;;;;1.85;1.50;;;6.50;96.50;;;;;;4993699;28;20176;-68
2023/04/20 07:27:39;;;;;;;0.65;0.65;;;6.50;96.70;;;;;;4993594;28;20175;-69
2023/04/20 07:30:06;;;;;;;1.40;1.30;;;6.50;97.40;;;;;;4992552;28;20662;-68
2023/04/20 07:32:36;;;;;;;1.33;1.33;;;6.70;97.50;;;;;;4993706;28;20238;-68
2023/04/20 07:35:02;;;;;;;1.45;1.35;;;6.70;96.70;;;;;;4993593;28;20228;-68
2023/04/20 07:37:28;;;;;;;0.82;0.82;;;6.70;96.90;;;;;;4993413;28;20172;-68
2023/04/20 07:39:54;;;;;;;0.97;0.97;;;6.70;96.90;;;;;;4993778;28;20180;-68
2023/04/20 07:42:20;;;;;;;0.87;0.87;;;6.70;97.10;;;;;;4995473;28;20767;-68
2023/04/20 07:44:46;;;;;;;0.50;0.50;;;6.70;96.40;;;;;;4997642;28;20566;-68
2023/04/20 07:47:12;;;;;;;1.17;1.17;;;6.50;97.60;;;;;;4997201;28;20263;-69
2023/04/20 07:49:39;;;;;;;0.57;0.57;;;6.50;97.60;;;;;;4997255;28;20174;-68
2023/04/20 07:52:06;;;;;;;0.60;0.60;;;6.60;97.90;;;;;;4997190;28;20190;-68
2023/04/20 07:54:31;;;;;;;0.93;0.93;;;6.70;98.70;;;;;;4997240;28;20179;-69
2023/04/20 07:56:57;;;;;;;3.50;2.77;;;6.80;98.60;;;;;;4995351;28;20174;-68
2023/04/20 07:59:23;;;;;;;1.13;0.80;;;6.70;97.50;;;;;;4997211;28;20178;-68
2023/04/20 08:01:49;;;;;;;1.20;0.90;;;6.80;98.00;;;;;;4997161;28;20184;-68
2023/04/20 08:04:16;;;;;;;0.83;0.83;;;6.90;98.40;;;;;;4996867;28;20213;-68
2023/04/20 08:06:41;;;;;;;1.25;1.15;;;7.10;98.40;;;;;;4996927;28;20202;-68
2023/04/20 08:09:07;;;;;;;0.60;0.60;;;7.30;97.80;;;;;;4996838;28;20178;-69
2023/04/20 08:11:33;;;;;;;0.40;0.40;;;7.50;97.50;;;;;;4996887;28;20334;-69
2023/04/20 08:13:59;;;;;;;1.73;1.63;;;7.60;96.60;;;;;;4996859;28;20419;-68
2023/04/20 08:16:25;;;;;;;2.03;1.93;;;7.30;96.40;;;;;;4996752;28;20186;-69
2023/04/20 08:18:50;;;;;;;1.10;0.70;;;7.00;96.00;;;;;;4996040;28;20184;-68
2023/04/20 08:21:16;;;;;;;0.80;0.80;;;6.80;96.50;;;;;;4995640;28;20186;-68
2023/04/20 08:23:42;;;;;;;1.23;1.23;;;6.90;96.30;;;;;;4996938;28;20191;-68
2023/04/20 08:26:07;;;;;;;0.83;0.83;;;6.90;96.60;;;;;;4996526;28;20542;-68
2023/04/20 08:28:33;;;;;;;1.83;1.73;;;6.90;98.00;;;;;;4996258;28;20843;-68
2023/04/20 08:30:59;;;;;;;0.90;0.90;;;6.80;98.60;;;;;;4996395;28;20196;-68
2023/04/20 08:33:24;;;;;;;2.30;2.10;;;6.90;97.40;;;;;;4996366;28;20200;-68
2023/04/20 08:35:51;;;;;;;0.97;0.93;;;6.90;96.90;;;;;;4996402;28;20260;-68
2023/04/20 08:38:17;;;;;;;0.40;0.40;;;7.10;96.70;;;;;;4996287;28;20180;-68
2023/04/20 08:40:42;;;;;;;1.00;1.00;;;7.20;96.30;;;;;;4995009;28;20609;-68
2023/04/20 08:43:08;;;;;;;2.80;2.37;;;7.00;96.10;;;;;;4996332;28;20196;-68
2023/04/20 08:45:34;;;;;;;0.60;0.60;;;6.80;96.50;;;;;;4995015;28;21033;-68
2023/04/20 08:48:09;;;;;;;4.73;2.10;;;6.80;96.80;;;;;;4996038;28;20804;-68
2023/04/20 08:50:36;;;;;;;2.15;2.05;;;6.90;97.40;;;;;;4996496;28;20190;-69
2023/04/20 08:53:03;;;;;;;2.25;2.15;;;6.90;97.40;;;;;;4995365;28;20204;-68
2023/04/20 08:55:28;;;;;;;0.50;0.50;;;6.90;96.40;;;;;;4996092;28;20541;-68
2023/04/20 08:57:54;;;;;;;0.80;0.80;;;6.70;96.40;;;;;;4995877;28;20183;-68
2023/04/20 09:00:20;;;;;;;0.40;0.40;;;6.60;97.80;;;;;;4996442;28;20179;-68
2023/04/20 09:02:54;;;;;;;0.50;0.50;;;6.50;97.80;;;;;;4995793;28;20206;-68
2023/04/20 09:05:27;;;;;;;0.95;0.90;;;6.40;98.70;;;;;;4995888;28;20802;-68
2023/04/20 09:07:57;;;;;;;1.77;0.88;;;6.10;99.90;;;;;;4995716;28;20588;-68
2023/04/20 09:10:24;;;;;;;1.30;1.13;;;6.30;99.80;;;;;;4995917;28;20171;-69
2023/04/20 09:12:50;;;;;;;0.40;0.40;;;6.60;98.60;;;;;;4995647;28;20190;-69
2023/04/20 09:15:27;;;;;;;0.70;0.70;;;7.00;99.20;;;;;;4995901;28;20172;-69
2023/04/20 09:17:53;;;;;;;0.40;0.40;;;7.40;97.80;;;;;;4995560;28;20580;-69
2023/04/20 09:20:28;;;;;;;2.03;1.93;;;7.70;97.60;;;;;;4995495;28;20229;-69
2023/04/20 09:22:53;;;;;;;0.40;0.40;;;7.80;97.30;;;;;;4994303;28;20283;-69
2023/04/20 09:25:20;;;;;;;1.17;1.07;;;7.90;96.60;;;;;;4995398;28;20247;-68
2023/04/20 09:28:00;;;;;;;0.65;0.65;;;8.00;96.50;;;;;;4995231;28;20168;-69
2023/04/20 09:30:37;;;;;;;0.40;0.40;;;8.00;97.00;;;;;;4995365;28;20533;-69
2023/04/20 09:33:03;;;;;;;0.75;0.75;;;8.10;96.70;;;;;;4995380;28;20246;-69
2023/04/20 09:35:30;;;;;;;0.98;0.98;;;8.20;96.20;;;;;;4995222;28;20184;-68
2023/04/20 09:37:55;;;;;;;0.30;0.30;;;8.10;95.60;;;;;;4993802;28;20534;-69
2023/04/20 09:40:24;;;;;;;0.50;0.50;;;7.80;95.40;;;;;;4995220;28;20180;-68
2023/04/20 09:42:51;;;;;;;0.70;0.70;;;7.50;96.10;;;;;;4994964;28;20435;-68
2023/04/20 09:45:17;;;;;;;0.52;0.52;;;7.70;96.60;;;;;;4994813;28;20183;-69
2023/04/20 09:47:43;;;;;;;0.80;0.75;;;7.80;95.70;;;;;;4994399;28;20170;-69
2023/04/20 09:50:10;;;;;;;1.73;1.63;;;7.80;95.80;;;;;;4994749;28;20621;-68
2023/04/20 09:52:39;;;;;;;0.40;0.40;;;7.90;95.20;;;;;;4994761;28;20478;-69
2023/04/20 09:55:06;;;;;;;0.40;0.40;;;8.20;94.90;;;;;;4995050;28;20180;-69
2023/04/20 09:57:33;;;;;;;0.40;0.40;;;8.20;93.80;;;;;;4994871;28;20231;-68
2023/04/20 10:00:00;;;;;;;1.77;1.13;;;7.80;93.80;;;;;;4993684;28;20218;-69
2023/04/20 10:02:26;;;;;;;0.45;0.45;;;7.80;94.10;;;;;;4994867;28;20168;-69
2023/04/20 10:04:58;;;;;;;0.93;0.70;;;8.00;94.10;;;;;;4994019;28;20255;-69
2023/04/20 10:07:29;;;;;;;4.90;1.15;;;8.20;93.70;;;;;;4994251;28;20203;-69
2023/04/20 10:10:10;;;;;;;0.60;0.60;;;8.30;94.10;;;;;;4994704;28;20172;-69
2023/04/20 10:12:55;;;;;;;0.98;0.98;;;8.50;94.00;;;;;;4994639;28;20187;-69
2023/04/20 10:15:22;;;;;;;0.88;0.55;;;8.20;94.20;;;;;;4994790;28;20218;-69
2023/04/20 10:17:48;;;;;;;0.85;0.82;;;7.80;94.00;;;;;;4994451;28;20169;-69
2023/04/20 10:20:21;;;;;;;0.40;0.40;;;7.70;94.10;;;;;;4994479;28;20584;-69
2023/04/20 10:22:47;;;;;;;0.40;0.40;;;7.80;94.80;;;;;;4994411;28;20191;-68
2023/04/20 10:25:21;;;;;;;0.80;0.80;;;7.80;95.20;;;;;;4994312;28;20235;-69
2023/04/20 10:27:57;;;;;;;0.40;0.40;;;7.80;95.10;;;;;;4994274;28;20175;-68
2023/04/20 10:30:24;;;;;;;0.40;0.40;;;7.80;94.90;;;;;;4993066;28;20203;-69
2023/04/20 10:33:11;;;;;;;0.55;0.55;;;7.80;95.60;;;;;;4994235;28;20188;-69
2023/04/20 10:35:44;;;;;;;0.40;0.40;;;7.50;95.80;;;;;;4994218;28;20168;-68
2023/04/20 10:38:10;;;;;;;0.40;0.40;;;7.00;96.10;;;;;;4993972;28;20262;-69
2023/04/20 10:40:37;;;;;;;0.40;0.40;;;6.80;97.00;;;;;;4994339;28;20225;-68
2023/04/20 10:43:03;;;;;;;0.40;0.40;;;6.70;97.80;;;;;;4994034;28;20261;-68
2023/04/20 10:45:37;;;;;;;0.80;0.80;;;6.50;97.10;;;;;;4994157;28;20639;-68
2023/04/20 10:48:09;;;;;;;0.30;0.30;;;6.60;97.50;;;;;;4993876;28;20175;-68
2023/04/20 10:50:35;;;;;;;0.30;0.30;;;6.70;97.40;;;;;;4993967;28;20172;-68
2023/04/20 10:53:02;;;;;;;0.40;0.40;;;6.80;97.30;;;;;;4993763;28;20206;-68
2023/04/20 10:55:28;;;;;;;0.40;0.40;;;7.00;97.40;;;;;;4993982;28;20690;-69
2023/04/20 10:57:53;;;;;;;0.50;0.50;;;7.30;97.70;;;;;;4993759;28;20175;-68
2023/04/20 11:00:22;;;;;;;0.40;0.40;;;7.60;96.80;;;;;;4992612;28;20186;-69
2023/04/20 11:02:56;;;;;;;0.43;0.43;;;7.90;96.70;;;;;;4993799;28;20199;-68
2023/04/20 11:05:24;;;;;;;1.25;1.20;;;8.00;96.70;;;;;;4992553;28;20179;-69
2023/04/20 11:08:02;;;;;;;0.90;0.90;;;7.90;97.50;;;;;;4993742;28;20169;-69
2023/04/20 11:10:39;;;;;;;0.30;0.30;;;8.10;97.20;;;;;;4993958;28;20257;-69
2023/04/20 11:13:05;;;;;;;0.50;0.50;;;8.30;96.10;;;;;;4992576;28;20206;-68
2023/04/20 11:15:32;;;;;;;0.30;0.30;;;8.30;96.20;;;;;;4993655;28;20266;-68
2023/04/20 11:18:08;;;;;;;0.50;0.50;;;8.20;96.60;;;;;;4996991;28;20575;-68
2023/04/20 11:20:34;;;;;;;0.40;0.40;;;8.00;96.70;;;;;;4997801;28;20198;-69
2023/04/20 11:22:59;;;;;;;0.40;0.40;;;8.20;96.20;;;;;;4996384;28;20195;-69
2023/04/20 11:25:26;;;;;;;0.30;0.30;;;8.20;95.50;;;;;;4996373;28;20446;-69
2023/04/20 11:27:52;;;;;;;0.40;0.40;;;8.30;95.90;;;;;;4997511;28;20175;-69
2023/04/20 11:30:18;;;;;;;0.30;0.30;;;8.20;97.00;;;;;;4996411;28;20180;-68
2023/04/20 11:32:53;;;;;;;0.30;0.30;;;8.30;96.50;;;;;;4996246;28;20246;-69
2023/04/20 11:35:18;;;;;;;0.40;0.40;;;8.40;95.30;;;;;;4997664;28;20179;-68
2023/04/20 11:37:52;;;;;;;0.30;0.30;;;8.30;95.00;;;;;;4997253;28;20478;-68
2023/04/20 11:40:18;;;;;;;0.47;0.47;;;8.40;95.90;;;;;;4997545;28;20222;-69
2023/04/20 11:42:45;;;;;;;0.30;0.30;;;8.50;96.20;;;;;;4997284;28;20676;-68
2023/04/20 11:45:11;;;;;;;0.30;0.30;;;8.70;96.50;;;;;;4997370;28;20199;-69
2023/04/20 11:47:39;;;;;;;0.40;0.40;;;8.90;96.00;;;;;;4997024;28;20275;-69
2023/04/20 11:50:06;;;;;;;0.30;0.30;;;9.00;95.10;;;;;;4996103;28;20180;-69
2023/04/20 11:52:32;;;;;;;0.40;0.40;;;9.00;95.10;;;;;;4997157;28;20204;-69
2023/04/20 11:54:57;;;;;;;0.40;0.40;;;9.20;95.30;;;;;;4997151;28;20187;-69
2023/04/20 11:57:24;;;;;;;0.40;0.40;;;9.30;94.00;;;;;;4996968;28;20842;-69
2023/04/20 11:59:50;;;;;;;0.50;0.50;;;9.50;94.40;;;;;;4996987;28;20200;-69
2023/04/20 12:02:16;;;;;;;0.30;0.30;;;9.60;94.90;;;;;;4997045;28;20207;-69
2023/04/20 12:04:41;;;;;;;0.70;0.40;;;9.60;94.50;;;;;;4997053;28;20422;-69
2023/04/20 12:07:07;;;;;;;0.40;0.40;;;9.70;93.70;;;;;;4996759;28;20571;-69
2023/04/20 12:09:37;;;;;;;0.30;0.30;;;9.80;94.20;;;;;;4997000;28;20244;-69
2023/04/20 12:12:07;;;;;;;0.30;0.30;;;10.00;92.30;;;;;;4997608;28;20168;-68
2023/04/20 12:14:33;;;;;;;0.40;0.40;;;10.00;91.30;;;;;;4996825;28;20613;-69
2023/04/20 12:17:00;;;;;;;0.40;0.40;;;10.10;92.20;;;;;;4996722;28;20526;-69
2023/04/20 12:19:25;;;;;;;0.60;0.60;;;10.10;90.60;;;;;;4995444;28;20180;-68
2023/04/20 12:21:51;;;;;;;0.40;0.40;;;10.10;90.30;;;;;;4996696;28;20175;-69
2023/04/20 12:24:16;;;;;;;0.40;0.40;;;10.00;91.70;;;;;;4996802;28;20211;-69
2023/04/20 12:26:42;;;;;;;0.60;0.60;;;9.90;93.30;;;;;;4996471;28;20211;-69
2023/04/20 12:29:08;;;;;;;0.40;0.40;;;9.90;93.20;;;;;;4995544;28;20168;-69
2023/04/20 12:31:34;;;;;;;0.30;0.30;;;10.00;93.10;;;;;;4996598;28;20172;-69
2023/04/20 12:34:00;;;;;;;0.30;0.30;;;10.10;93.20;;;;;;4996386;28;20559;-68
2023/04/20 12:36:26;;;;;;;0.30;0.30;;;10.00;93.10;;;;;;4996394;28;20283;-69
2023/04/20 12:38:54;;;;;;;0.77;0.70;;;9.90;93.40;;;;;;4996153;28;20176;-69
2023/04/20 12:41:21;;;;;;;0.30;0.30;;;9.80;94.10;;;;;;4996570;28;20712;-69
2023/04/20 12:43:48;;;;;;;0.40;0.40;;;9.80;93.70;;;;;;4996308;28;20665;-69
2023/04/20 12:46:14;;;;;;;0.35;0.35;;;9.70;93.00;;;;;;4996356;28;20291;-68
2023/04/20 12:48:40;;;;;;;0.30;0.30;;;9.60;93.80;;;;;;4996074;28;20255;-69
2023/04/20 12:51:06;;;;;;;0.30;0.30;;;9.50;94.20;;;;;;4996130;28;20171;-69
2023/04/20 12:53:31;;;;;;;0.30;0.30;;;9.40;93.30;;;;;;4995874;28;20214;-69
2023/04/20 12:55:58;;;;;;;0.53;0.53;;;9.30;93.80;;;;;;4996312;28;20176;-69